createdAt,value
2023-03-22T00:00:05.843Z,51.77
2023-03-22T00:02:34.335Z,51.88
2023-03-22T00:05:02.853Z,51.89
2023-03-22T00:07:31.544Z,51.87
2023-03-22T00:10:01.358Z,51.74
2023-03-22T00:12:29.773Z,51.84
2023-03-22T00:15:00.039Z,51.92
2023-03-22T00:17:28.481Z,51.86
2023-03-22T00:19:57.265Z,51.70
2023-03-22T00:22:26.495Z,51.72
2023-03-22T00:24:54.921Z,51.97
2023-03-22T00:27:24.809Z,51.77
2023-03-22T00:29:53.495Z,51.72
2023-03-22T00:32:21.963Z,51.75
2023-03-22T00:34:51.588Z,51.75
2023-03-22T00:37:20.334Z,51.62
2023-03-22T00:39:48.835Z,51.52
2023-03-22T00:42:17.933Z,51.64
2023-03-22T00:44:47.806Z,51.53
2023-03-22T00:47:16.289Z,51.60
2023-03-22T00:49:44.969Z,51.50
2023-03-22T00:52:13.504Z,51.45
2023-03-22T00:54:42.109Z,51.52
2023-03-22T00:57:10.769Z,51.54
2023-03-22T00:59:40.022Z,51.50
2023-03-22T01:02:10.010Z,51.38
2023-03-22T01:04:40.079Z,51.44
2023-03-22T01:07:08.542Z,51.36
2023-03-22T01:09:39.305Z,51.21
2023-03-22T01:12:07.964Z,51.22
2023-03-22T01:14:36.453Z,51.38
2023-03-22T01:17:05.333Z,51.17
2023-03-22T01:19:35.432Z,51.39
2023-03-22T01:22:05.158Z,51.30
2023-03-22T01:24:34.497Z,51.08
2023-03-22T01:27:03.058Z,51.18
2023-03-22T01:29:32.214Z,51.12
2023-03-22T01:32:00.825Z,51.12
2023-03-22T01:34:29.282Z,51.10
2023-03-22T01:36:59.165Z,50.99
2023-03-22T01:39:28.218Z,51.18
2023-03-22T01:42:00.110Z,50.90
2023-03-22T01:44:31.154Z,50.92
2023-03-22T01:47:01.303Z,50.84
2023-03-22T01:49:34.365Z,50.89
2023-03-22T01:52:08.035Z,51.03
2023-03-22T01:54:57.526Z,50.84
2023-03-22T01:57:45.686Z,50.72
2023-03-22T02:00:28.388Z,50.69
2023-03-22T02:03:32.007Z,50.65
2023-03-22T02:06:00.996Z,50.72
2023-03-22T02:08:31.724Z,50.80
2023-03-22T02:11:04.180Z,50.61
2023-03-22T02:13:50.475Z,50.66
2023-03-22T02:16:44.570Z,50.50
2023-03-22T02:19:56.227Z,50.73
2023-03-22T02:23:03.838Z,50.43
2023-03-22T02:26:04.546Z,50.44
2023-03-22T02:28:43.972Z,50.58
2023-03-22T02:31:41.647Z,50.50
2023-03-22T02:34:33.929Z,50.50
2023-03-22T02:37:24.187Z,50.35
2023-03-22T02:39:57.115Z,50.55
2023-03-22T02:42:38.799Z,50.42
2023-03-22T02:45:15.342Z,50.39
2023-03-22T02:47:54.466Z,50.34
2023-03-22T02:50:28.470Z,50.32
2023-03-22T02:53:04.337Z,50.32
2023-03-22T02:55:40.445Z,50.38
2023-03-22T02:58:13.424Z,50.32
2023-03-22T03:00:43.428Z,50.32
2023-03-22T03:03:14.865Z,50.19
2023-03-22T03:05:46.314Z,50.17
2023-03-22T03:08:17.508Z,50.14
2023-03-22T03:10:49.089Z,50.12
2023-03-22T03:13:19.679Z,50.01
2023-03-22T03:15:52.693Z,50.13
2023-03-22T03:18:34.738Z,49.98
2023-03-22T03:21:08.696Z,50.14
2023-03-22T03:23:49.816Z,49.98
2023-03-22T03:26:29.462Z,49.99
2023-03-22T03:29:01.625Z,49.95
2023-03-22T03:31:38.228Z,49.90
2023-03-22T03:34:14.297Z,49.89
2023-03-22T03:36:50.198Z,49.80
2023-03-22T03:39:20.290Z,49.85
2023-03-22T03:41:52.782Z,49.88
2023-03-22T03:44:21.922Z,49.84
2023-03-22T03:46:53.450Z,49.85
2023-03-22T03:49:24.481Z,49.83
2023-03-22T03:51:54.562Z,49.93
2023-03-22T03:54:23.559Z,49.67
2023-03-22T03:56:53.658Z,49.79
2023-03-22T03:59:22.197Z,49.73
2023-03-22T04:01:52.936Z,49.67
2023-03-22T04:04:30.856Z,49.73
2023-03-22T04:07:07.546Z,49.54
2023-03-22T04:09:40.364Z,49.63
2023-03-22T04:12:18.857Z,49.57
2023-03-22T04:15:08.400Z,49.63
2023-03-22T04:17:37.772Z,49.57
2023-03-22T04:20:10.798Z,49.57
2023-03-22T04:22:40.171Z,49.56
2023-03-22T04:25:12.113Z,49.37
2023-03-22T04:27:50.995Z,49.40
2023-03-22T04:30:21.926Z,49.52
2023-03-22T04:33:01.207Z,49.33
2023-03-22T04:35:46.265Z,49.40
2023-03-22T04:38:15.085Z,49.41
2023-03-22T04:40:46.571Z,49.35
2023-03-22T04:43:23.441Z,49.37
2023-03-22T04:46:03.253Z,49.47
2023-03-22T04:48:40.761Z,49.46
2023-03-22T04:51:12.658Z,49.32
2023-03-22T04:53:49.904Z,49.34
2023-03-22T04:56:18.628Z,49.19
2023-03-22T04:58:49.370Z,49.19
2023-03-22T05:01:19.348Z,49.38
2023-03-22T05:03:52.414Z,49.14
2023-03-22T05:06:24.185Z,49.09
2023-03-22T05:09:00.892Z,49.22
2023-03-22T05:11:29.617Z,49.10
2023-03-22T05:14:16.297Z,49.13
2023-03-22T05:16:45.034Z,49.11
2023-03-22T05:19:14.751Z,49.18
2023-03-22T05:21:47.575Z,49.02
2023-03-22T05:24:16.536Z,49.05
2023-03-22T05:26:53.709Z,49.15
2023-03-22T05:29:27.047Z,49.08
2023-03-22T05:32:06.199Z,49.13
2023-03-22T05:34:36.325Z,49.06
2023-03-22T05:37:16.818Z,49.19
2023-03-22T05:39:52.694Z,49.15
2023-03-22T05:42:22.169Z,50.63
2023-03-22T05:44:51.970Z,50.63
2023-03-22T05:47:22.087Z,50.64
2023-03-22T05:50:04.033Z,50.61
2023-03-22T05:52:33.963Z,50.96
2023-03-22T05:55:34.747Z,51.59
2023-03-22T05:58:06.308Z,51.53
2023-03-22T06:00:40.264Z,50.71
2023-03-22T06:03:27.035Z,50.98
2023-03-22T06:06:06.779Z,51.52
2023-03-22T06:08:42.044Z,50.75
2023-03-22T06:11:11.220Z,50.30
2023-03-22T06:13:39.712Z,49.89
2023-03-22T06:16:11.160Z,49.69
2023-03-22T06:18:39.920Z,49.38
2023-03-22T06:21:12.466Z,49.31
2023-03-22T06:23:41.398Z,49.80
2023-03-22T06:26:11.395Z,50.65
2023-03-22T06:28:40.479Z,49.96
2023-03-22T06:31:11.634Z,49.96
2023-03-22T06:33:49.058Z,48.28
2023-03-22T06:36:26.407Z,48.64
2023-03-22T06:39:21.348Z,49.66
2023-03-22T06:41:50.591Z,49.79
2023-03-22T06:44:19.680Z,50.35
2023-03-22T06:46:54.947Z,50.12
2023-03-22T06:49:41.385Z,50.03
2023-03-22T06:52:11.287Z,50.36
2023-03-22T06:54:39.754Z,50.28
2023-03-22T06:57:08.278Z,50.36
2023-03-22T06:59:38.151Z,50.28
2023-03-22T07:02:07.985Z,50.65
2023-03-22T07:04:36.702Z,50.51
2023-03-22T07:07:05.232Z,50.47
2023-03-22T07:09:33.973Z,50.38
2023-03-22T07:12:02.544Z,50.54
2023-03-22T07:14:32.786Z,50.72
2023-03-22T07:17:30.044Z,50.75
2023-03-22T07:19:58.889Z,50.67
2023-03-22T07:22:27.383Z,50.55
2023-03-22T07:24:58.907Z,50.53
2023-03-22T07:27:31.106Z,50.32
2023-03-22T07:30:00.410Z,50.60
2023-03-22T07:32:31.415Z,50.66
2023-03-22T07:35:06.848Z,50.80
2023-03-22T07:37:35.899Z,50.53
2023-03-22T07:40:10.098Z,50.83
2023-03-22T07:42:38.788Z,50.71
2023-03-22T07:45:26.926Z,50.46
2023-03-22T07:48:15.675Z,50.49
2023-03-22T07:51:22.981Z,50.57
2023-03-22T07:53:51.668Z,50.83
2023-03-22T07:56:20.438Z,50.71
2023-03-22T07:58:49.008Z,50.75
2023-03-22T08:01:17.563Z,50.95
2023-03-22T08:04:07.750Z,50.71
2023-03-22T08:07:05.860Z,50.89
2023-03-22T08:09:34.361Z,51.17
2023-03-22T08:12:03.085Z,50.95
2023-03-22T08:14:36.586Z,51.02
2023-03-22T08:17:09.310Z,50.77
2023-03-22T08:19:39.098Z,50.76
2023-03-22T08:22:09.613Z,50.86
2023-03-22T08:25:00.815Z,50.93
2023-03-22T08:27:32.655Z,50.66
2023-03-22T08:30:02.255Z,50.77
2023-03-22T08:32:34.646Z,51.08
2023-03-22T08:35:07.638Z,51.11
2023-03-22T08:37:36.233Z,51.02
2023-03-22T08:40:10.406Z,51.33
2023-03-22T08:42:50.636Z,51.37
2023-03-22T08:45:19.555Z,51.38
2023-03-22T08:47:59.859Z,51.26
2023-03-22T08:50:30.379Z,51.21
2023-03-22T08:53:11.126Z,51.14
2023-03-22T08:55:39.986Z,51.39
2023-03-22T08:58:12.262Z,51.32
2023-03-22T09:00:50.641Z,51.72
2023-03-22T09:03:26.940Z,51.61
2023-03-22T09:05:56.793Z,51.52
2023-03-22T09:08:26.005Z,51.19
2023-03-22T09:11:00.348Z,51.08
2023-03-22T09:13:31.773Z,51.33
2023-03-22T09:16:03.236Z,51.04
2023-03-22T09:18:34.379Z,51.20
2023-03-22T09:21:09.110Z,51.34
2023-03-22T09:23:47.722Z,51.36
2023-03-22T09:26:17.849Z,51.44
2023-03-22T09:28:49.900Z,51.46
2023-03-22T09:31:20.446Z,51.00
2023-03-22T09:33:52.320Z,51.55
2023-03-22T09:36:22.996Z,51.12
2023-03-22T09:38:52.131Z,50.76
2023-03-22T09:41:25.057Z,50.52
2023-03-22T09:43:57.962Z,50.48
2023-03-22T09:46:31.863Z,50.34
2023-03-22T09:49:02.719Z,50.37
2023-03-22T09:51:39.616Z,50.27
2023-03-22T09:54:15.036Z,50.22
2023-03-22T09:56:46.020Z,50.09
2023-03-22T09:59:20.752Z,50.13
2023-03-22T10:01:54.490Z,50.06
2023-03-22T10:04:35.424Z,50.00
2023-03-22T10:07:11.405Z,50.16
2023-03-22T10:09:54.223Z,49.91
2023-03-22T10:12:27.498Z,49.80
2023-03-22T10:15:04.300Z,50.04
2023-03-22T10:17:33.110Z,49.98
2023-03-22T10:20:08.125Z,49.93
2023-03-22T10:22:42.565Z,49.83
2023-03-22T10:25:18.045Z,50.13
2023-03-22T10:27:47.846Z,49.89
2023-03-22T10:30:22.023Z,49.55
2023-03-22T10:32:57.837Z,49.98
2023-03-22T10:35:27.401Z,49.94
2023-03-22T10:38:01.388Z,49.75
2023-03-22T10:40:33.882Z,50.15
2023-03-22T10:43:07.211Z,49.77
2023-03-22T10:45:36.993Z,49.99
2023-03-22T10:48:10.921Z,49.96
2023-03-22T10:50:42.893Z,49.87
2023-03-22T10:53:24.530Z,49.95
2023-03-22T10:55:53.063Z,49.92
2023-03-22T10:58:23.125Z,50.08
2023-03-22T11:00:54.024Z,50.10
2023-03-22T11:03:29.248Z,50.00
2023-03-22T11:06:02.664Z,50.10
2023-03-22T11:08:40.162Z,50.05
2023-03-22T11:11:17.279Z,49.97
2023-03-22T11:13:51.845Z,50.28
2023-03-22T11:16:21.022Z,50.73
2023-03-22T11:18:49.641Z,51.04
2023-03-22T11:21:19.623Z,51.22
2023-03-22T11:23:56.370Z,51.20
2023-03-22T11:26:31.979Z,51.29
2023-03-22T11:29:11.452Z,51.66
2023-03-22T11:31:56.257Z,51.78
2023-03-22T11:34:27.514Z,51.09
2023-03-22T11:36:57.627Z,50.88
2023-03-22T11:39:29.626Z,50.57
2023-03-22T11:42:01.439Z,50.80
2023-03-22T11:44:34.831Z,50.75
2023-03-22T11:47:05.291Z,50.54
2023-03-22T11:49:41.518Z,50.51
2023-03-22T11:52:13.419Z,50.38
2023-03-22T11:54:45.787Z,50.43
2023-03-22T11:57:19.172Z,50.29
2023-03-22T11:59:51.107Z,50.32
2023-03-22T12:02:24.701Z,50.17
2023-03-22T12:05:00.629Z,50.10
2023-03-22T12:07:31.470Z,49.89
2023-03-22T12:10:06.350Z,50.02
2023-03-22T12:12:39.851Z,49.88
2023-03-22T12:15:16.569Z,49.65
2023-03-22T12:17:50.386Z,48.94
2023-03-22T12:20:29.183Z,42.85
2023-03-22T12:22:58.085Z,42.98
2023-03-22T12:25:32.517Z,41.52
2023-03-22T12:28:06.276Z,40.88
2023-03-22T12:30:42.710Z,40.29
2023-03-22T12:33:19.481Z,40.01
2023-03-22T12:35:50.007Z,39.76
2023-03-22T12:38:27.933Z,39.47
2023-03-22T12:41:01.485Z,39.16
2023-03-22T12:43:43.407Z,39.24
2023-03-22T12:46:19.269Z,38.78
2023-03-22T12:48:51.596Z,38.44
2023-03-22T12:51:20.398Z,38.48
2023-03-22T12:53:57.123Z,38.16
2023-03-22T12:56:31.794Z,37.79
2023-03-22T12:59:03.443Z,38.01
2023-03-22T13:01:36.783Z,37.97
2023-03-22T13:04:31.617Z,37.86
2023-03-22T13:07:11.438Z,37.91
2023-03-22T13:09:42.517Z,37.32
2023-03-22T13:12:33.589Z,36.61
2023-03-22T13:15:20.608Z,36.51
2023-03-22T13:17:52.212Z,36.87
2023-03-22T13:20:41.082Z,36.59
2023-03-22T13:23:27.926Z,36.18
2023-03-22T13:26:02.165Z,35.77
2023-03-22T13:28:37.177Z,35.67
2023-03-22T13:31:06.398Z,35.54
2023-03-22T13:33:37.053Z,35.81
2023-03-22T13:36:09.620Z,35.99
2023-03-22T13:38:42.590Z,36.02
2023-03-22T13:41:22.188Z,36.28
2023-03-22T13:43:54.918Z,36.86
2023-03-22T13:46:45.589Z,36.98
2023-03-22T13:49:26.341Z,36.87
2023-03-22T13:51:56.954Z,37.25
2023-03-22T13:54:33.291Z,37.10
2023-03-22T13:57:02.088Z,36.75
2023-03-22T14:00:06.863Z,37.23
2023-03-22T14:02:43.589Z,36.97
2023-03-22T14:05:17.501Z,36.88
2023-03-22T14:07:50.748Z,36.99
2023-03-22T14:10:23.233Z,36.59
2023-03-22T14:12:55.769Z,36.15
2023-03-22T14:15:30.026Z,35.60
2023-03-22T14:18:01.688Z,36.39
2023-03-22T14:20:34.437Z,35.89
